createdAt,value
2019-04-01T00:00:59.296Z,85.00
2019-04-01T00:03:29.174Z,86.00
2019-04-01T00:05:58.765Z,85.90
2019-04-01T00:08:28.372Z,85.70
2019-04-01T00:10:57.982Z,86.00
2019-04-01T00:13:27.609Z,87.20
2019-04-01T00:15:57.236Z,87.00
2019-04-01T00:18:26.830Z,87.20
2019-04-01T00:20:56.451Z,87.00
2019-04-01T00:23:26.041Z,87.40
2019-04-01T00:25:55.662Z,86.50
2019-04-01T00:28:25.326Z,86.60
2019-04-01T00:30:54.949Z,85.30
2019-04-01T00:33:24.533Z,86.60
2019-04-01T00:35:54.159Z,87.20
2019-04-01T00:38:23.752Z,87.40
2019-04-01T00:40:53.412Z,87.00
2019-04-01T00:43:24.695Z,86.60
2019-04-01T00:45:55.905Z,86.20
2019-04-01T00:48:25.493Z,86.40
2019-04-01T00:50:55.117Z,86.70
2019-04-01T00:53:24.705Z,87.60
2019-04-01T00:55:54.396Z,86.90
2019-04-01T00:58:23.992Z,86.20
2019-04-01T01:00:53.612Z,87.30
2019-04-01T01:03:23.203Z,88.00
2019-04-01T01:05:52.829Z,87.80
2019-04-01T01:08:22.419Z,88.10
2019-04-01T01:10:52.006Z,87.60
2019-04-01T01:13:21.631Z,88.00
2019-04-01T01:15:51.220Z,87.50
2019-04-01T01:18:20.847Z,88.20
2019-04-01T01:20:50.459Z,88.10
2019-04-01T01:23:20.080Z,88.10
2019-04-01T01:25:49.675Z,88.90
2019-04-01T01:28:19.286Z,87.90
2019-04-01T01:30:48.974Z,87.90
2019-04-01T01:33:18.592Z,87.60
2019-04-01T01:35:48.183Z,88.20
2019-04-01T01:38:17.807Z,88.00
2019-04-01T01:40:47.404Z,87.90
2019-04-01T01:43:17.021Z,87.80
2019-04-01T01:45:46.629Z,87.00
2019-04-01T01:48:16.219Z,86.80
2019-04-01T01:50:45.838Z,87.60
2019-04-01T01:53:15.453Z,87.70
2019-04-01T01:55:45.072Z,87.80
2019-04-01T01:58:14.767Z,87.40
2019-04-01T02:00:44.397Z,87.20
2019-04-01T02:03:13.986Z,87.30
2019-04-01T02:05:43.688Z,87.80
2019-04-01T02:08:13.279Z,87.70
2019-04-01T02:10:43.014Z,87.60
2019-04-01T02:13:12.615Z,87.20
2019-04-01T02:15:42.241Z,87.90
2019-04-01T02:18:11.829Z,88.20
2019-04-01T02:20:41.423Z,88.70
2019-04-01T02:23:11.044Z,88.90
2019-04-01T02:25:40.643Z,89.50
2019-04-01T02:28:10.289Z,90.20
2019-04-01T02:30:39.877Z,90.10
2019-04-01T02:33:09.492Z,88.30
2019-04-01T02:35:39.114Z,88.30
2019-04-01T02:38:08.728Z,88.10
2019-04-01T02:40:38.390Z,88.30
2019-04-01T02:43:09.616Z,89.50
2019-04-01T02:45:39.215Z,89.90
2019-04-01T02:48:08.827Z,90.10
2019-04-01T02:50:38.485Z,90.70
2019-04-01T02:53:08.083Z,90.40
2019-04-01T02:55:37.682Z,90.30
2019-04-01T02:58:07.304Z,90.50
2019-04-01T03:00:36.914Z,90.40
2019-04-01T03:03:06.532Z,90.30
2019-04-01T03:05:36.519Z,90.10
2019-04-01T03:08:06.147Z,89.70
2019-04-01T03:10:35.847Z,90.10
2019-04-01T03:13:05.456Z,90.30
2019-04-01T03:15:35.057Z,90.30
2019-04-01T03:18:04.793Z,90.10
2019-04-01T03:20:35.024Z,90.00
2019-04-01T03:23:05.320Z,88.80
2019-04-01T03:25:35.434Z,89.40
2019-04-01T03:28:05.097Z,89.90
2019-04-01T03:30:34.757Z,90.40
2019-04-01T03:33:04.351Z,90.80
2019-04-01T03:35:33.971Z,90.60
2019-04-01T03:38:03.670Z,90.70
2019-04-01T03:40:33.289Z,90.60
2019-04-01T03:43:02.984Z,90.20
2019-04-01T03:45:32.601Z,90.10
2019-04-01T03:48:02.297Z,90.30
2019-04-01T03:50:32.017Z,90.40
2019-04-01T03:53:01.603Z,90.30
2019-04-01T03:55:31.199Z,90.30
2019-04-01T03:58:00.817Z,90.70
2019-04-01T04:00:30.411Z,90.40
2019-04-01T04:03:00.034Z,89.90
2019-04-01T04:05:29.881Z,89.90
2019-04-01T04:07:59.575Z,90.60
2019-04-01T04:10:29.180Z,90.50
2019-04-01T04:12:58.782Z,90.60
2019-04-01T04:15:28.532Z,90.90
2019-04-01T04:17:58.227Z,91.20
2019-04-01T04:20:27.843Z,91.20
2019-04-01T04:22:57.515Z,91.00
2019-04-01T04:25:27.511Z,90.80
2019-04-01T04:27:57.245Z,90.60
2019-04-01T04:30:27.016Z,90.50
2019-04-01T04:32:56.670Z,90.50
2019-04-01T04:35:26.263Z,90.50
2019-04-01T04:37:55.963Z,90.50
2019-04-01T04:40:25.585Z,90.70
2019-04-01T04:42:55.201Z,91.10
2019-04-01T04:45:24.802Z,90.60
2019-04-01T04:47:54.522Z,90.50
2019-04-01T04:50:24.125Z,90.30
2019-04-01T04:52:53.722Z,90.50
2019-04-01T04:55:23.370Z,90.20
2019-04-01T04:57:53.058Z,90.10
2019-04-01T05:00:22.829Z,90.00
2019-04-01T05:02:52.527Z,90.20
2019-04-01T05:05:22.219Z,90.30
2019-04-01T05:07:53.444Z,90.50
2019-04-01T05:10:23.077Z,90.30
2019-04-01T05:12:52.658Z,90.40
2019-04-01T05:15:22.282Z,90.10
2019-04-01T05:17:51.880Z,90.10
2019-04-01T05:20:21.493Z,89.50
2019-04-01T05:22:51.817Z,89.90
2019-04-01T05:25:21.758Z,90.00
2019-04-01T05:27:54.234Z,90.20
2019-04-01T05:30:23.823Z,90.30
2019-04-01T05:32:56.165Z,89.60
2019-04-01T05:35:26.776Z,89.70
2019-04-01T05:37:56.996Z,89.10
2019-04-01T05:40:27.766Z,88.90
2019-04-01T05:42:57.634Z,88.50
2019-04-01T05:45:27.229Z,88.00
2019-04-01T05:47:57.850Z,87.70
2019-04-01T05:50:27.727Z,87.50
2019-04-01T05:52:57.476Z,87.30
2019-04-01T05:55:27.248Z,87.50
2019-04-01T05:57:57.002Z,87.80
2019-04-01T06:00:31.342Z,88.30
2019-04-01T06:03:01.032Z,88.90
2019-04-01T06:05:30.724Z,89.10
2019-04-01T06:08:00.522Z,89.50
2019-04-01T06:10:30.213Z,89.60
2019-04-01T06:13:00.238Z,88.70
2019-04-01T06:15:29.978Z,88.00
2019-04-01T06:17:59.791Z,87.20
2019-04-01T06:20:29.451Z,86.30
2019-04-01T06:22:59.605Z,87.30
2019-04-01T06:25:29.227Z,87.10
2019-04-01T06:27:58.893Z,87.30
2019-04-01T06:30:28.593Z,87.30
2019-04-01T06:32:58.439Z,87.20
2019-04-01T06:35:28.058Z,86.90
2019-04-01T06:37:57.658Z,87.40
2019-04-01T06:40:27.347Z,87.10
2019-04-01T06:42:56.955Z,86.70
2019-04-01T06:45:26.888Z,86.70
2019-04-01T06:47:56.513Z,86.50
2019-04-01T06:50:26.175Z,86.70
2019-04-01T06:52:56.019Z,86.60
2019-04-01T06:55:25.614Z,86.80
2019-04-01T06:57:55.539Z,86.70
2019-04-01T07:00:25.320Z,86.80
2019-04-01T07:02:55.098Z,86.80
2019-04-01T07:05:24.709Z,85.20
2019-04-01T07:07:54.576Z,84.50
2019-04-01T07:10:24.948Z,84.40
2019-04-01T07:12:54.833Z,84.10
2019-04-01T07:15:24.435Z,83.50
2019-04-01T07:17:54.341Z,82.70
2019-04-01T07:20:23.940Z,82.40
2019-04-01T07:22:53.610Z,81.50
2019-04-01T07:25:23.477Z,81.10
2019-04-01T07:27:53.168Z,80.80
2019-04-01T07:30:22.975Z,80.30
2019-04-01T07:32:52.671Z,80.80
2019-04-01T07:35:22.541Z,80.40
2019-04-01T07:37:52.709Z,80.20
2019-04-01T07:40:22.337Z,78.40
2019-04-01T07:42:53.130Z,78.60
2019-04-01T07:45:22.919Z,79.10
2019-04-01T07:47:52.854Z,79.40
2019-04-01T07:50:22.555Z,78.80
2019-04-01T07:52:55.304Z,78.50
2019-04-01T07:55:24.008Z,78.30
2019-04-01T07:57:53.709Z,78.00
2019-04-01T08:00:23.619Z,77.60
2019-04-01T08:02:53.488Z,77.40
2019-04-01T08:05:25.840Z,77.10
2019-04-01T08:07:54.953Z,76.60
2019-04-01T08:10:24.568Z,76.60
2019-04-01T08:12:54.330Z,76.00
2019-04-01T08:15:23.925Z,75.90
2019-04-01T08:17:53.622Z,74.50
2019-04-01T08:20:23.329Z,73.30
2019-04-01T08:22:52.925Z,72.80
2019-04-01T08:25:22.847Z,72.30
2019-04-01T08:27:52.559Z,70.80
2019-04-01T08:30:22.369Z,68.00
2019-04-01T08:33:02.012Z,66.90
2019-04-01T08:35:31.856Z,66.00
2019-04-01T08:38:01.463Z,64.00
2019-04-01T08:40:31.163Z,63.20
2019-04-01T08:43:00.788Z,63.20
2019-04-01T08:45:30.421Z,61.90
2019-04-01T08:48:00.238Z,62.00
2019-04-01T08:50:29.875Z,61.50
2019-04-01T08:52:59.481Z,59.60
2019-04-01T08:55:29.325Z,59.20
2019-04-01T08:57:58.950Z,59.00
2019-04-01T09:00:28.585Z,57.80
2019-04-01T09:02:58.254Z,57.40
2019-04-01T09:05:28.765Z,56.20
2019-04-01T09:07:59.411Z,55.70
2019-04-01T09:10:29.181Z,53.40
2019-04-01T09:12:59.852Z,51.70
2019-04-01T09:15:29.453Z,50.10
2019-04-01T09:17:59.077Z,47.80
2019-04-01T09:20:28.678Z,48.30
2019-04-01T09:22:59.364Z,46.40
2019-04-01T09:25:29.120Z,47.00
2019-04-01T09:27:58.717Z,44.00
2019-04-01T09:30:28.418Z,45.60
2019-04-01T09:32:58.016Z,44.90
2019-04-01T09:35:27.648Z,45.00
2019-04-01T09:37:57.248Z,45.10
2019-04-01T09:40:26.950Z,45.10
2019-04-01T09:42:56.584Z,43.40
2019-04-01T09:45:26.215Z,43.30
2019-04-01T09:47:55.808Z,44.20
2019-04-01T09:50:25.437Z,43.10
2019-04-01T09:52:55.119Z,43.00
2019-04-01T09:55:24.741Z,42.50
2019-04-01T09:57:54.375Z,42.00
2019-04-01T10:00:24.205Z,42.60
2019-04-01T10:02:53.846Z,42.60
2019-04-01T10:05:23.441Z,41.90
2019-04-01T10:07:53.082Z,42.00
2019-04-01T10:10:22.904Z,42.60
2019-04-01T10:12:52.522Z,42.80
2019-04-01T10:15:22.262Z,42.60
2019-04-01T10:17:51.899Z,42.30
2019-04-01T10:20:21.663Z,42.40
2019-04-01T10:22:51.265Z,42.80
2019-04-01T10:25:20.893Z,41.20
2019-04-01T10:27:50.664Z,41.60
2019-04-01T10:30:22.504Z,40.60
2019-04-01T10:32:52.173Z,39.90
2019-04-01T10:35:22.320Z,40.10
2019-04-01T10:37:51.964Z,40.20
2019-04-01T10:40:21.699Z,39.70
2019-04-01T10:42:51.297Z,39.40
2019-04-01T10:45:21.324Z,40.10
2019-04-01T10:47:50.963Z,39.90
2019-04-01T10:50:20.790Z,40.00
2019-04-01T10:52:50.454Z,40.70
2019-04-01T10:55:20.219Z,40.20
2019-04-01T11:00:34.632Z,40.80
2019-04-01T11:03:06.221Z,39.90
2019-04-01T11:05:35.719Z,39.30
2019-04-01T11:08:05.478Z,40.30
2019-04-01T11:10:35.166Z,36.80
2019-04-01T11:13:04.794Z,36.40
2019-04-01T11:15:34.420Z,37.00
2019-04-01T11:18:04.047Z,36.10
2019-04-01T11:20:33.653Z,36.30
2019-04-01T11:23:05.006Z,37.30
2019-04-01T11:25:34.776Z,36.80
2019-04-01T11:28:04.522Z,36.40
2019-04-01T11:30:36.947Z,36.90
2019-04-01T11:33:07.709Z,37.30
2019-04-01T11:35:37.053Z,35.90
2019-04-01T11:38:06.703Z,35.80
2019-04-01T11:40:38.781Z,35.30
2019-04-01T11:43:07.728Z,34.60
2019-04-01T11:45:37.329Z,34.70
2019-04-01T11:48:06.955Z,34.80
2019-04-01T11:50:36.525Z,35.20
2019-04-01T11:53:06.344Z,35.20
2019-04-01T11:55:36.763Z,36.10
2019-04-01T11:58:06.446Z,36.10
2019-04-01T12:00:36.073Z,35.80
2019-04-01T12:03:05.816Z,35.90
2019-04-01T12:05:35.440Z,35.40
2019-04-01T12:08:05.169Z,35.70
2019-04-01T12:10:34.917Z,36.30
2019-04-01T12:13:04.973Z,35.30
2019-04-01T12:15:34.601Z,36.60
2019-04-01T12:18:04.374Z,37.30
2019-04-01T12:20:34.000Z,36.10
2019-04-01T12:23:03.631Z,35.30
2019-04-01T12:25:33.523Z,35.80
2019-04-01T12:28:03.229Z,35.50
2019-04-01T12:30:32.832Z,35.60
2019-04-01T12:33:02.703Z,35.30
2019-04-01T12:35:32.341Z,35.30
2019-04-01T12:38:02.013Z,36.00
2019-04-01T12:40:31.652Z,35.00
2019-04-01T12:43:01.254Z,36.10
2019-04-01T12:45:30.858Z,35.80
2019-04-01T12:48:00.486Z,35.90
2019-04-01T12:50:30.181Z,36.60
2019-04-01T12:52:59.786Z,36.90
2019-04-01T12:55:29.417Z,37.10
2019-04-01T12:57:59.105Z,36.90
2019-04-01T13:00:29.282Z,36.80
2019-04-01T13:02:59.022Z,36.90
2019-04-01T13:05:28.631Z,37.00
2019-04-01T13:07:58.266Z,36.80
2019-04-01T13:10:27.874Z,36.30
2019-04-01T13:12:57.479Z,35.90
2019-04-01T13:15:27.114Z,36.60
2019-04-01T13:17:56.739Z,36.30
2019-04-01T13:20:37.755Z,36.70
2019-04-01T13:22:57.744Z,36.80
2019-04-01T13:25:27.365Z,36.40
2019-04-01T13:27:57.249Z,36.00
2019-04-01T13:30:27.209Z,35.50
2019-04-01T13:32:56.809Z,35.50
2019-04-01T13:35:26.428Z,35.80
2019-04-01T13:37:56.034Z,35.60
2019-04-01T13:40:25.741Z,35.60
2019-04-01T13:42:55.374Z,35.60
2019-04-01T13:45:31.175Z,35.90
2019-04-01T13:47:56.362Z,35.80
2019-04-01T13:50:26.032Z,35.70
2019-04-01T13:52:55.658Z,34.60
2019-04-01T13:55:25.258Z,35.70
2019-04-01T13:57:54.894Z,36.20
2019-04-01T14:00:27.411Z,36.20
2019-04-01T14:02:55.904Z,35.80
2019-04-01T14:05:25.507Z,35.80
2019-04-01T14:07:55.138Z,36.10
2019-04-01T14:10:24.898Z,36.30
2019-04-01T14:12:54.748Z,37.40
2019-04-01T14:15:24.345Z,36.60
2019-04-01T14:17:53.972Z,36.50
2019-04-01T14:20:23.574Z,36.00
2019-04-01T14:22:54.753Z,36.70
2019-04-01T14:25:24.349Z,36.10
2019-04-01T14:27:53.949Z,36.20
2019-04-01T14:30:23.582Z,35.90
2019-04-01T14:32:53.182Z,35.60
2019-04-01T14:35:23.863Z,35.50
2019-04-01T14:37:53.697Z,35.10
2019-04-01T14:40:23.331Z,35.40
2019-04-01T14:42:52.972Z,36.00
2019-04-01T14:45:22.607Z,35.00
2019-04-01T14:47:57.649Z,34.70
2019-04-01T14:50:23.525Z,35.80
2019-04-01T14:52:53.144Z,35.60
2019-04-01T14:55:22.768Z,35.90
2019-04-01T14:57:52.396Z,36.40
2019-04-01T15:00:22.277Z,36.20
2019-04-01T15:02:51.912Z,35.80
2019-04-01T15:05:21.512Z,36.70
2019-04-01T15:07:51.136Z,37.10
2019-04-01T15:10:21.366Z,37.30
2019-04-01T15:13:04.541Z,36.90
2019-04-01T15:15:22.480Z,37.20
2019-04-01T15:17:52.110Z,37.40
2019-04-01T15:20:21.933Z,37.70
2019-04-01T15:22:52.407Z,38.10
2019-04-01T15:25:22.951Z,38.20
2019-04-01T15:27:52.586Z,38.10
2019-04-01T15:30:22.187Z,38.00
2019-04-01T15:32:52.162Z,38.20
2019-04-01T15:35:21.986Z,38.30
2019-04-01T15:37:52.152Z,38.70
2019-04-01T15:40:22.060Z,38.30
2019-04-01T15:42:51.684Z,38.90
2019-04-01T15:45:21.353Z,38.70
2019-04-01T15:47:50.980Z,38.80
2019-04-01T15:50:28.271Z,39.30
2019-04-01T15:52:52.031Z,39.10
2019-04-01T15:55:21.703Z,39.40
2019-04-01T15:57:51.339Z,39.40
2019-04-01T16:00:21.642Z,39.30
2019-04-01T16:02:51.271Z,39.30
2019-04-01T16:05:20.940Z,39.10
2019-04-01T16:07:50.566Z,39.40
2019-04-01T16:10:21.127Z,39.70
2019-04-01T16:12:50.977Z,39.00
2019-04-01T16:15:20.644Z,39.50
2019-04-01T16:17:53.611Z,39.80
2019-04-01T16:20:21.685Z,39.50
2019-04-01T16:22:51.280Z,39.90
2019-04-01T16:25:20.917Z,39.90
2019-04-01T16:27:50.535Z,40.30
2019-04-01T16:30:20.133Z,40.40
2019-04-01T16:32:49.762Z,40.70
2019-04-01T16:35:19.363Z,41.10
2019-04-01T16:37:48.964Z,41.20
2019-04-01T16:40:18.764Z,41.00
2019-04-01T16:42:48.479Z,41.60
2019-04-01T16:45:18.248Z,41.60
2019-04-01T16:47:48.550Z,42.00
2019-04-01T16:50:18.568Z,42.00
2019-04-01T16:52:48.264Z,42.20
2019-04-01T16:55:18.778Z,42.60
2019-04-01T16:57:48.549Z,42.50
2019-04-01T17:00:19.181Z,42.80
2019-04-01T17:02:50.086Z,43.30
2019-04-01T17:05:27.197Z,43.50
2019-04-01T17:07:56.797Z,43.70
2019-04-01T17:10:27.036Z,43.90
2019-04-01T17:12:56.656Z,44.10
2019-04-01T17:15:26.328Z,44.70
2019-04-01T17:17:55.957Z,45.10
2019-04-01T17:20:25.592Z,45.90
2019-04-01T17:22:55.194Z,46.90
2019-04-01T17:25:26.147Z,46.90
2019-04-01T17:27:56.069Z,46.50
2019-04-01T17:30:25.740Z,47.80
2019-04-01T17:32:55.365Z,48.20
2019-04-01T17:35:24.962Z,48.80
2019-04-01T17:37:54.657Z,49.90
2019-04-01T17:40:24.285Z,49.70
2019-04-01T17:42:53.884Z,50.70
2019-04-01T17:45:33.846Z,50.40
2019-04-01T17:48:04.603Z,50.50
2019-04-01T17:50:35.172Z,50.80
2019-04-01T17:53:07.786Z,51.00
2019-04-01T17:55:37.453Z,51.50
2019-04-01T17:58:07.798Z,52.00
2019-04-01T18:00:39.174Z,52.50
2019-04-01T18:03:09.475Z,52.60
2019-04-01T18:05:39.301Z,52.20
2019-04-01T18:08:09.003Z,52.00
2019-04-01T18:10:38.597Z,52.20
2019-04-01T18:13:08.231Z,52.40
2019-04-01T18:15:37.964Z,52.00
2019-04-01T18:18:07.594Z,50.50
2019-04-01T18:20:37.218Z,50.10
2019-04-01T18:23:06.820Z,50.30
2019-04-01T18:25:36.513Z,50.10
2019-04-01T18:28:06.114Z,50.30
2019-04-01T18:30:35.879Z,51.60
2019-04-01T18:33:05.573Z,52.90
2019-04-01T18:35:35.336Z,52.30
2019-04-01T18:38:04.936Z,53.80
2019-04-01T18:40:35.826Z,52.40
2019-04-01T18:43:05.544Z,53.10
2019-04-01T18:45:35.177Z,52.60
2019-04-01T18:48:04.878Z,52.90
2019-04-01T18:50:34.488Z,52.90
2019-04-01T18:53:04.182Z,53.30
2019-04-01T18:55:34.282Z,53.30
2019-04-01T18:58:03.955Z,52.90
2019-04-01T19:00:33.621Z,53.50
2019-04-01T19:03:03.248Z,53.70
2019-04-01T19:05:32.917Z,54.40
2019-04-01T19:08:04.184Z,58.90
2019-04-01T19:10:34.019Z,59.50
2019-04-01T19:13:06.167Z,57.10
2019-04-01T19:15:35.949Z,58.30
2019-04-01T19:18:06.348Z,56.40
2019-04-01T19:20:35.951Z,56.90
2019-04-01T19:23:05.645Z,56.40
2019-04-01T19:25:35.273Z,55.50
2019-04-01T19:28:04.893Z,55.20
2019-04-01T19:30:34.520Z,55.30
2019-04-01T19:33:06.664Z,57.10
2019-04-01T19:35:35.471Z,57.00
2019-04-01T19:38:07.161Z,60.00
2019-04-01T19:40:36.521Z,62.20
2019-04-01T19:43:06.218Z,64.50
2019-04-01T19:45:36.029Z,66.20
2019-04-01T19:48:05.722Z,64.60
2019-04-01T19:50:35.437Z,61.70
2019-04-01T19:53:05.127Z,61.90
2019-04-01T19:55:34.757Z,63.70
2019-04-01T19:58:05.204Z,63.90
2019-04-01T20:00:35.179Z,62.20
2019-04-01T20:03:04.865Z,67.50
2019-04-01T20:05:34.570Z,63.80
2019-04-01T20:08:04.237Z,65.10
2019-04-01T20:10:34.138Z,65.10
2019-04-01T20:13:03.753Z,67.50
2019-04-01T20:15:33.373Z,66.10
2019-04-01T20:18:03.005Z,70.00
2019-04-01T20:20:32.614Z,69.80
2019-04-01T20:23:02.250Z,67.20
2019-04-01T20:25:31.849Z,68.20
2019-04-01T20:28:01.545Z,66.80
2019-04-01T20:30:31.215Z,67.40
2019-04-01T20:33:00.836Z,68.90
2019-04-01T20:35:30.532Z,70.30
2019-04-01T20:38:00.200Z,71.10
2019-04-01T20:40:29.821Z,71.60
2019-04-01T20:42:59.424Z,73.00
2019-04-01T20:45:29.141Z,71.00
2019-04-01T20:47:58.773Z,71.40
2019-04-01T20:50:28.541Z,71.80
2019-04-01T20:52:58.150Z,72.10
2019-04-01T20:55:27.766Z,72.70
2019-04-01T20:57:57.366Z,73.20
2019-04-01T21:00:26.989Z,73.70
2019-04-01T21:02:56.587Z,74.70
2019-04-01T21:05:26.209Z,76.30
2019-04-01T21:07:55.827Z,76.00
2019-04-01T21:10:25.449Z,77.50
2019-04-01T21:12:55.042Z,77.30
2019-04-01T21:15:24.659Z,77.50
2019-04-01T21:17:54.283Z,77.80
2019-04-01T21:20:23.974Z,78.00
2019-04-01T21:22:53.563Z,77.40
2019-04-01T21:25:23.191Z,78.40
2019-04-01T21:27:53.165Z,80.70
2019-04-01T21:30:23.319Z,80.50
2019-04-01T21:32:52.911Z,80.10
2019-04-01T21:35:22.548Z,79.90
2019-04-01T21:37:52.140Z,79.40
2019-04-01T21:40:21.750Z,78.00
2019-04-01T21:42:51.517Z,77.90
2019-04-01T21:45:21.561Z,77.70
2019-04-01T21:47:51.183Z,77.10
2019-04-01T21:50:20.976Z,76.10
2019-04-01T21:52:50.567Z,76.20
2019-04-01T21:55:20.191Z,76.90
2019-04-01T21:57:51.160Z,77.60
2019-04-01T22:00:39.172Z,78.70
2019-04-01T22:03:09.013Z,77.70
2019-04-01T22:05:38.672Z,76.80
2019-04-01T22:08:08.276Z,77.90
2019-04-01T22:10:37.898Z,79.50
2019-04-01T22:13:07.523Z,79.80
2019-04-01T22:15:37.110Z,80.30
2019-04-01T22:18:06.935Z,79.20
2019-04-01T22:20:36.620Z,80.10
2019-04-01T22:23:06.341Z,81.20
2019-04-01T22:25:36.215Z,80.30
2019-04-01T22:28:06.042Z,79.90
2019-04-01T22:30:35.663Z,80.40
2019-04-01T22:33:05.352Z,81.00
2019-04-01T22:35:39.065Z,81.70
2019-04-01T22:38:06.618Z,82.30
2019-04-01T22:40:36.291Z,82.40
2019-04-01T22:43:05.953Z,82.40
2019-04-01T22:45:35.574Z,83.10
2019-04-01T22:48:05.255Z,83.30
2019-04-01T22:50:34.858Z,82.60
2019-04-01T22:53:04.926Z,82.20
2019-04-01T22:55:34.551Z,82.40
2019-04-01T22:58:04.234Z,83.50
2019-04-01T23:00:33.822Z,82.70
2019-04-01T23:03:03.510Z,83.00
2019-04-01T23:05:33.138Z,83.10
2019-04-01T23:08:02.829Z,83.10
2019-04-01T23:10:32.399Z,82.80
2019-04-01T23:13:02.026Z,83.40
2019-04-01T23:15:31.617Z,83.50
2019-04-01T23:18:01.211Z,84.40
2019-04-01T23:20:30.831Z,83.70
2019-04-01T23:23:00.424Z,82.70
2019-04-01T23:25:30.045Z,81.50
2019-04-01T23:27:59.636Z,81.40
2019-04-01T23:30:29.256Z,81.40
2019-04-01T23:32:58.844Z,81.70
2019-04-01T23:35:28.471Z,82.40
2019-04-01T23:37:58.062Z,83.40
2019-04-01T23:40:27.659Z,84.40
2019-04-01T23:42:57.666Z,84.20
2019-04-01T23:45:27.547Z,83.10
2019-04-01T23:47:57.236Z,83.00
2019-04-01T23:50:26.826Z,82.50
2019-04-01T23:52:56.454Z,83.50
2019-04-01T23:55:26.119Z,84.60
2019-04-01T23:57:55.735Z,84.90
